sensor_id;sensor_type;location;lat;lon;timestamp;P1;durP1;ratioP1;P2;durP2;ratioP2
27706;SDS011;36332;51.384;0.040;2023-07-29T00:00:55;8.38;;;3.08;;
27706;SDS011;36332;51.384;0.040;2023-07-29T00:03:23;8.15;;;1.73;;
27706;SDS011;36332;51.384;0.040;2023-07-29T00:05:51;4.88;;;2.55;;
27706;SDS011;36332;51.384;0.040;2023-07-29T00:08:19;4.47;;;1.73;;
27706;SDS011;36332;51.384;0.040;2023-07-29T00:10:47;5.60;;;1.98;;
27706;SDS011;36332;51.384;0.040;2023-07-29T00:13:15;6.97;;;1.83;;
27706;SDS011;36332;51.384;0.040;2023-07-29T00:15:43;3.88;;;1.98;;
27706;SDS011;36332;51.384;0.040;2023-07-29T00:18:11;4.25;;;1.98;;
27706;SDS011;36332;51.384;0.040;2023-07-29T00:20:39;7.10;;;2.10;;
27706;SDS011;36332;51.384;0.040;2023-07-29T00:23:07;4.95;;;2.17;;
27706;SDS011;36332;51.384;0.040;2023-07-29T00:25:35;7.32;;;1.88;;
27706;SDS011;36332;51.384;0.040;2023-07-29T00:28:03;7.22;;;2.45;;
27706;SDS011;36332;51.384;0.040;2023-07-29T00:30:31;5.32;;;1.85;;
27706;SDS011;36332;51.384;0.040;2023-07-29T00:32:59;9.00;;;1.88;;
27706;SDS011;36332;51.384;0.040;2023-07-29T00:35:27;6.43;;;2.35;;
27706;SDS011;36332;51.384;0.040;2023-07-29T00:37:55;3.53;;;1.73;;
27706;SDS011;36332;51.384;0.040;2023-07-29T00:40:23;8.07;;;2.15;;
27706;SDS011;36332;51.384;0.040;2023-07-29T00:42:51;6.70;;;2.42;;
27706;SDS011;36332;51.384;0.040;2023-07-29T00:45:19;6.20;;;1.95;;
27706;SDS011;36332;51.384;0.040;2023-07-29T00:47:47;6.13;;;2.60;;
27706;SDS011;36332;51.384;0.040;2023-07-29T00:50:16;3.35;;;1.63;;
27706;SDS011;36332;51.384;0.040;2023-07-29T00:52:44;3.67;;;2.08;;
27706;SDS011;36332;51.384;0.040;2023-07-29T00:55:12;3.63;;;1.73;;
27706;SDS011;36332;51.384;0.040;2023-07-29T00:57:40;6.95;;;2.30;;
27706;SDS011;36332;51.384;0.040;2023-07-29T01:00:09;6.85;;;2.75;;
27706;SDS011;36332;51.384;0.040;2023-07-29T01:02:37;9.27;;;2.63;;
27706;SDS011;36332;51.384;0.040;2023-07-29T01:05:06;8.48;;;3.40;;
27706;SDS011;36332;51.384;0.040;2023-07-29T01:10:44;6.13;;;3.38;;
27706;SDS011;36332;51.384;0.040;2023-07-29T01:13:36;4.65;;;3.25;;
27706;SDS011;36332;51.384;0.040;2023-07-29T01:16:10;4.65;;;3.20;;
27706;SDS011;36332;51.384;0.040;2023-07-29T01:18:45;6.18;;;3.17;;
27706;SDS011;36332;51.384;0.040;2023-07-29T01:21:15;5.90;;;2.92;;
27706;SDS011;36332;51.384;0.040;2023-07-29T01:23:44;6.28;;;3.50;;
27706;SDS011;36332;51.384;0.040;2023-07-29T01:26:12;9.25;;;3.30;;
27706;SDS011;36332;51.384;0.040;2023-07-29T01:28:40;8.98;;;3.28;;
27706;SDS011;36332;51.384;0.040;2023-07-29T01:31:43;7.80;;;3.40;;
27706;SDS011;36332;51.384;0.040;2023-07-29T01:34:07;6.15;;;3.60;;
27706;SDS011;36332;51.384;0.040;2023-07-29T01:36:40;4.80;;;3.28;;
27706;SDS011;36332;51.384;0.040;2023-07-29T01:39:14;6.85;;;3.65;;
27706;SDS011;36332;51.384;0.040;2023-07-29T01:41:43;8.55;;;4.05;;
27706;SDS011;36332;51.384;0.040;2023-07-29T01:44:12;9.23;;;3.80;;
27706;SDS011;36332;51.384;0.040;2023-07-29T01:46:40;5.47;;;3.67;;
27706;SDS011;36332;51.384;0.040;2023-07-29T01:49:08;6.28;;;3.67;;
27706;SDS011;36332;51.384;0.040;2023-07-29T01:51:36;5.30;;;3.65;;
27706;SDS011;36332;51.384;0.040;2023-07-29T01:54:04;5.45;;;3.65;;
27706;SDS011;36332;51.384;0.040;2023-07-29T01:56:32;7.45;;;4.60;;
27706;SDS011;36332;51.384;0.040;2023-07-29T01:59:01;6.80;;;4.65;;
27706;SDS011;36332;51.384;0.040;2023-07-29T02:01:29;9.18;;;4.70;;
27706;SDS011;36332;51.384;0.040;2023-07-29T02:03:58;6.82;;;4.00;;
27706;SDS011;36332;51.384;0.040;2023-07-29T02:06:26;9.23;;;4.25;;
27706;SDS011;36332;51.384;0.040;2023-07-29T02:08:55;5.38;;;4.00;;
27706;SDS011;36332;51.384;0.040;2023-07-29T02:11:23;9.10;;;4.18;;
27706;SDS011;36332;51.384;0.040;2023-07-29T02:13:55;7.78;;;4.47;;
27706;SDS011;36332;51.384;0.040;2023-07-29T02:16:24;7.18;;;4.38;;
27706;SDS011;36332;51.384;0.040;2023-07-29T02:18:52;8.15;;;5.30;;
27706;SDS011;36332;51.384;0.040;2023-07-29T02:21:23;10.13;;;5.60;;
27706;SDS011;36332;51.384;0.040;2023-07-29T02:23:51;9.13;;;5.03;;
27706;SDS011;36332;51.384;0.040;2023-07-29T02:26:19;9.90;;;5.15;;
27706;SDS011;36332;51.384;0.040;2023-07-29T02:28:47;8.18;;;5.15;;
27706;SDS011;36332;51.384;0.040;2023-07-29T02:31:17;7.10;;;5.07;;
27706;SDS011;36332;51.384;0.040;2023-07-29T02:33:47;7.18;;;5.10;;
27706;SDS011;36332;51.384;0.040;2023-07-29T02:36:17;10.93;;;5.82;;
27706;SDS011;36332;51.384;0.040;2023-07-29T02:38:45;8.65;;;5.05;;
27706;SDS011;36332;51.384;0.040;2023-07-29T02:41:13;12.52;;;5.60;;
27706;SDS011;36332;51.384;0.040;2023-07-29T02:43:43;12.38;;;6.13;;
27706;SDS011;36332;51.384;0.040;2023-07-29T02:46:15;9.55;;;6.25;;
27706;SDS011;36332;51.384;0.040;2023-07-29T02:48:43;7.47;;;5.35;;
27706;SDS011;36332;51.384;0.040;2023-07-29T02:51:11;11.18;;;5.28;;
27706;SDS011;36332;51.384;0.040;2023-07-29T02:53:39;7.72;;;4.68;;
27706;SDS011;36332;51.384;0.040;2023-07-29T02:56:07;12.20;;;5.35;;
27706;SDS011;36332;51.384;0.040;2023-07-29T02:58:36;8.63;;;4.95;;
27706;SDS011;36332;51.384;0.040;2023-07-29T03:01:05;17.58;;;4.78;;
27706;SDS011;36332;51.384;0.040;2023-07-29T03:03:34;10.15;;;4.75;;
27706;SDS011;36332;51.384;0.040;2023-07-29T03:06:06;13.38;;;4.80;;
27706;SDS011;36332;51.384;0.040;2023-07-29T03:08:36;12.25;;;4.57;;
27706;SDS011;36332;51.384;0.040;2023-07-29T03:11:07;7.45;;;3.67;;
27706;SDS011;36332;51.384;0.040;2023-07-29T03:13:39;7.35;;;4.20;;
27706;SDS011;36332;51.384;0.040;2023-07-29T03:16:12;9.57;;;4.53;;
27706;SDS011;36332;51.384;0.040;2023-07-29T03:18:47;9.20;;;5.13;;
27706;SDS011;36332;51.384;0.040;2023-07-29T03:21:15;10.35;;;4.47;;
27706;SDS011;36332;51.384;0.040;2023-07-29T03:23:43;15.30;;;4.50;;
27706;SDS011;36332;51.384;0.040;2023-07-29T03:26:11;10.13;;;4.13;;
27706;SDS011;36332;51.384;0.040;2023-07-29T03:28:40;11.23;;;4.38;;
27706;SDS011;36332;51.384;0.040;2023-07-29T03:31:09;8.77;;;4.40;;
27706;SDS011;36332;51.384;0.040;2023-07-29T03:33:37;11.43;;;3.78;;
27706;SDS011;36332;51.384;0.040;2023-07-29T03:36:05;7.72;;;4.10;;
27706;SDS011;36332;51.384;0.040;2023-07-29T03:38:33;15.85;;;4.95;;
27706;SDS011;36332;51.384;0.040;2023-07-29T03:41:03;14.05;;;4.75;;
27706;SDS011;36332;51.384;0.040;2023-07-29T03:43:31;9.90;;;4.85;;
27706;SDS011;36332;51.384;0.040;2023-07-29T03:46:01;11.00;;;5.10;;
27706;SDS011;36332;51.384;0.040;2023-07-29T03:48:29;11.02;;;4.97;;
27706;SDS011;36332;51.384;0.040;2023-07-29T03:50:58;15.65;;;5.43;;
27706;SDS011;36332;51.384;0.040;2023-07-29T03:53:26;11.30;;;5.07;;
27706;SDS011;36332;51.384;0.040;2023-07-29T03:55:54;12.65;;;5.35;;
27706;SDS011;36332;51.384;0.040;2023-07-29T03:58:21;10.95;;;5.60;;
27706;SDS011;36332;51.384;0.040;2023-07-29T04:00:49;9.13;;;4.80;;
27706;SDS011;36332;51.384;0.040;2023-07-29T04:03:17;8.15;;;4.43;;
27706;SDS011;36332;51.384;0.040;2023-07-29T04:05:46;8.23;;;4.47;;
27706;SDS011;36332;51.384;0.040;2023-07-29T04:08:14;12.55;;;4.85;;
27706;SDS011;36332;51.384;0.040;2023-07-29T04:10:42;13.15;;;4.65;;
27706;SDS011;36332;51.384;0.040;2023-07-29T04:13:10;10.85;;;5.28;;
27706;SDS011;36332;51.384;0.040;2023-07-29T04:15:37;10.43;;;5.03;;
27706;SDS011;36332;51.384;0.040;2023-07-29T04:18:05;10.73;;;4.78;;
27706;SDS011;36332;51.384;0.040;2023-07-29T04:20:33;18.95;;;4.32;;
27706;SDS011;36332;51.384;0.040;2023-07-29T04:23:01;7.63;;;4.25;;
27706;SDS011;36332;51.384;0.040;2023-07-29T04:25:29;14.75;;;5.18;;
27706;SDS011;36332;51.384;0.040;2023-07-29T04:27:57;12.40;;;5.45;;
27706;SDS011;36332;51.384;0.040;2023-07-29T04:30:25;7.88;;;4.45;;
27706;SDS011;36332;51.384;0.040;2023-07-29T04:32:54;20.88;;;4.97;;
27706;SDS011;36332;51.384;0.040;2023-07-29T04:35:21;12.52;;;5.60;;
27706;SDS011;36332;51.384;0.040;2023-07-29T04:37:49;14.85;;;4.88;;
27706;SDS011;36332;51.384;0.040;2023-07-29T04:40:17;12.68;;;4.93;;
27706;SDS011;36332;51.384;0.040;2023-07-29T04:42:45;14.75;;;4.75;;
27706;SDS011;36332;51.384;0.040;2023-07-29T04:45:13;14.07;;;5.88;;
27706;SDS011;36332;51.384;0.040;2023-07-29T04:47:41;14.18;;;5.20;;
27706;SDS011;36332;51.384;0.040;2023-07-29T04:50:09;14.38;;;4.85;;
27706;SDS011;36332;51.384;0.040;2023-07-29T04:52:37;13.50;;;5.40;;
27706;SDS011;36332;51.384;0.040;2023-07-29T04:55:05;14.65;;;5.60;;
27706;SDS011;36332;51.384;0.040;2023-07-29T04:57:32;11.48;;;5.40;;
27706;SDS011;36332;51.384;0.040;2023-07-29T05:00:01;17.65;;;6.93;;
27706;SDS011;36332;51.384;0.040;2023-07-29T05:02:30;15.52;;;5.45;;
27706;SDS011;36332;51.384;0.040;2023-07-29T05:04:58;12.80;;;5.45;;
27706;SDS011;36332;51.384;0.040;2023-07-29T05:07:26;12.07;;;5.55;;
27706;SDS011;36332;51.384;0.040;2023-07-29T05:09:53;12.80;;;5.57;;
27706;SDS011;36332;51.384;0.040;2023-07-29T05:12:21;17.98;;;6.60;;
27706;SDS011;36332;51.384;0.040;2023-07-29T05:14:49;17.45;;;4.95;;
27706;SDS011;36332;51.384;0.040;2023-07-29T05:17:17;14.55;;;5.30;;
27706;SDS011;36332;51.384;0.040;2023-07-29T05:19:45;18.95;;;6.70;;
27706;SDS011;36332;51.384;0.040;2023-07-29T05:22:14;15.20;;;6.15;;
27706;SDS011;36332;51.384;0.040;2023-07-29T05:24:41;13.55;;;5.63;;
27706;SDS011;36332;51.384;0.040;2023-07-29T05:27:09;10.88;;;5.20;;
27706;SDS011;36332;51.384;0.040;2023-07-29T05:29:37;14.40;;;6.10;;
27706;SDS011;36332;51.384;0.040;2023-07-29T05:32:05;14.70;;;5.55;;
27706;SDS011;36332;51.384;0.040;2023-07-29T05:34:33;18.23;;;6.28;;
27706;SDS011;36332;51.384;0.040;2023-07-29T05:37:01;17.13;;;6.53;;
27706;SDS011;36332;51.384;0.040;2023-07-29T05:39:29;13.68;;;5.60;;
27706;SDS011;36332;51.384;0.040;2023-07-29T05:41:59;14.30;;;5.85;;
27706;SDS011;36332;51.384;0.040;2023-07-29T05:44:29;18.95;;;6.07;;
27706;SDS011;36332;51.384;0.040;2023-07-29T05:46:57;11.18;;;6.65;;
27706;SDS011;36332;51.384;0.040;2023-07-29T05:49:25;14.85;;;6.50;;
27706;SDS011;36332;51.384;0.040;2023-07-29T05:51:53;16.60;;;6.30;;
27706;SDS011;36332;51.384;0.040;2023-07-29T05:54:21;12.57;;;6.07;;
27706;SDS011;36332;51.384;0.040;2023-07-29T05:56:48;16.65;;;6.07;;
27706;SDS011;36332;51.384;0.040;2023-07-29T05:59:16;18.88;;;6.40;;
27706;SDS011;36332;51.384;0.040;2023-07-29T06:01:44;14.32;;;6.45;;
27706;SDS011;36332;51.384;0.040;2023-07-29T06:04:12;12.98;;;6.38;;
27706;SDS011;36332;51.384;0.040;2023-07-29T06:06:40;11.65;;;6.38;;
27706;SDS011;36332;51.384;0.040;2023-07-29T06:09:08;9.52;;;5.47;;
27706;SDS011;36332;51.384;0.040;2023-07-29T06:11:35;14.15;;;5.72;;
27706;SDS011;36332;51.384;0.040;2023-07-29T06:14:03;8.38;;;4.88;;
27706;SDS011;36332;51.384;0.040;2023-07-29T06:16:32;10.18;;;5.38;;
27706;SDS011;36332;51.384;0.040;2023-07-29T06:18:59;6.88;;;4.10;;
27706;SDS011;36332;51.384;0.040;2023-07-29T06:21:27;13.57;;;4.10;;
27706;SDS011;36332;51.384;0.040;2023-07-29T06:23:55;5.53;;;4.00;;
27706;SDS011;36332;51.384;0.040;2023-07-29T06:26:23;12.20;;;4.50;;
27706;SDS011;36332;51.384;0.040;2023-07-29T06:28:51;8.13;;;3.72;;
27706;SDS011;36332;51.384;0.040;2023-07-29T06:31:18;9.07;;;3.83;;
27706;SDS011;36332;51.384;0.040;2023-07-29T06:33:46;7.65;;;3.83;;
27706;SDS011;36332;51.384;0.040;2023-07-29T06:36:14;7.75;;;4.30;;
27706;SDS011;36332;51.384;0.040;2023-07-29T06:38:41;8.80;;;3.72;;
27706;SDS011;36332;51.384;0.040;2023-07-29T06:41:09;6.45;;;3.63;;
27706;SDS011;36332;51.384;0.040;2023-07-29T06:43:41;8.90;;;3.85;;
27706;SDS011;36332;51.384;0.040;2023-07-29T06:46:08;10.88;;;3.40;;
27706;SDS011;36332;51.384;0.040;2023-07-29T06:48:36;7.75;;;3.90;;
27706;SDS011;36332;51.384;0.040;2023-07-29T06:51:04;7.70;;;3.72;;
27706;SDS011;36332;51.384;0.040;2023-07-29T06:53:32;6.00;;;3.25;;
27706;SDS011;36332;51.384;0.040;2023-07-29T06:56:01;10.98;;;3.95;;
27706;SDS011;36332;51.384;0.040;2023-07-29T06:58:28;8.25;;;3.30;;
27706;SDS011;36332;51.384;0.040;2023-07-29T07:00:57;8.88;;;3.58;;
27706;SDS011;36332;51.384;0.040;2023-07-29T07:03:24;10.63;;;3.00;;
27706;SDS011;36332;51.384;0.040;2023-07-29T07:05:52;8.35;;;3.53;;
27706;SDS011;36332;51.384;0.040;2023-07-29T07:08:20;6.47;;;3.95;;
27706;SDS011;36332;51.384;0.040;2023-07-29T07:10:48;5.88;;;3.50;;
27706;SDS011;36332;51.384;0.040;2023-07-29T07:13:16;4.82;;;2.90;;
27706;SDS011;36332;51.384;0.040;2023-07-29T07:15:44;7.80;;;3.15;;
27706;SDS011;36332;51.384;0.040;2023-07-29T07:18:12;6.45;;;3.15;;
27706;SDS011;36332;51.384;0.040;2023-07-29T07:20:40;4.97;;;2.95;;
27706;SDS011;36332;51.384;0.040;2023-07-29T07:23:08;11.88;;;3.13;;
27706;SDS011;36332;51.384;0.040;2023-07-29T07:25:38;5.20;;;2.67;;
27706;SDS011;36332;51.384;0.040;2023-07-29T07:28:06;7.22;;;3.08;;
27706;SDS011;36332;51.384;0.040;2023-07-29T07:30:34;4.57;;;2.88;;
27706;SDS011;36332;51.384;0.040;2023-07-29T07:33:02;5.82;;;2.40;;
27706;SDS011;36332;51.384;0.040;2023-07-29T07:35:30;5.35;;;2.85;;
27706;SDS011;36332;51.384;0.040;2023-07-29T07:37:57;4.53;;;3.00;;
27706;SDS011;36332;51.384;0.040;2023-07-29T07:40:28;3.58;;;2.35;;
27706;SDS011;36332;51.384;0.040;2023-07-29T07:42:55;7.85;;;2.63;;
27706;SDS011;36332;51.384;0.040;2023-07-29T07:45:23;6.63;;;2.55;;
27706;SDS011;36332;51.384;0.040;2023-07-29T07:47:51;4.80;;;2.47;;
27706;SDS011;36332;51.384;0.040;2023-07-29T07:50:20;5.25;;;2.90;;
27706;SDS011;36332;51.384;0.040;2023-07-29T07:52:48;4.63;;;2.83;;
27706;SDS011;36332;51.384;0.040;2023-07-29T07:55:16;4.60;;;2.63;;
27706;SDS011;36332;51.384;0.040;2023-07-29T07:57:43;3.63;;;2.85;;
27706;SDS011;36332;51.384;0.040;2023-07-29T08:00:11;5.10;;;2.85;;
27706;SDS011;36332;51.384;0.040;2023-07-29T08:02:43;13.45;;;4.70;;
27706;SDS011;36332;51.384;0.040;2023-07-29T08:05:11;11.40;;;2.92;;
27706;SDS011;36332;51.384;0.040;2023-07-29T08:07:38;4.13;;;2.90;;
27706;SDS011;36332;51.384;0.040;2023-07-29T08:10:06;6.68;;;2.75;;
27706;SDS011;36332;51.384;0.040;2023-07-29T08:12:34;3.38;;;2.58;;
27706;SDS011;36332;51.384;0.040;2023-07-29T08:15:02;7.75;;;3.33;;
27706;SDS011;36332;51.384;0.040;2023-07-29T08:17:30;4.50;;;2.30;;
27706;SDS011;36332;51.384;0.040;2023-07-29T08:19:57;6.68;;;2.45;;
27706;SDS011;36332;51.384;0.040;2023-07-29T08:22:25;8.57;;;2.25;;
27706;SDS011;36332;51.384;0.040;2023-07-29T08:24:53;6.25;;;2.63;;
27706;SDS011;36332;51.384;0.040;2023-07-29T08:27:21;8.35;;;3.30;;
27706;SDS011;36332;51.384;0.040;2023-07-29T08:29:49;5.20;;;2.55;;
27706;SDS011;36332;51.384;0.040;2023-07-29T08:32:17;10.13;;;2.65;;
27706;SDS011;36332;51.384;0.040;2023-07-29T08:34:45;2.83;;;2.53;;
27706;SDS011;36332;51.384;0.040;2023-07-29T08:37:13;6.68;;;2.20;;
27706;SDS011;36332;51.384;0.040;2023-07-29T08:39:40;4.35;;;2.13;;
27706;SDS011;36332;51.384;0.040;2023-07-29T08:42:08;5.47;;;2.40;;
27706;SDS011;36332;51.384;0.040;2023-07-29T08:44:42;3.45;;;2.08;;
27706;SDS011;36332;51.384;0.040;2023-07-29T08:47:11;4.38;;;1.60;;
27706;SDS011;36332;51.384;0.040;2023-07-29T08:49:40;5.18;;;1.75;;
27706;SDS011;36332;51.384;0.040;2023-07-29T08:52:08;5.40;;;2.03;;
27706;SDS011;36332;51.384;0.040;2023-07-29T08:54:36;6.65;;;2.10;;
27706;SDS011;36332;51.384;0.040;2023-07-29T08:57:04;5.43;;;2.63;;
27706;SDS011;36332;51.384;0.040;2023-07-29T08:59:33;7.35;;;2.33;;
27706;SDS011;36332;51.384;0.040;2023-07-29T09:02:01;4.65;;;2.28;;
27706;SDS011;36332;51.384;0.040;2023-07-29T09:04:29;7.03;;;2.13;;
27706;SDS011;36332;51.384;0.040;2023-07-29T09:06:57;5.80;;;2.25;;
27706;SDS011;36332;51.384;0.040;2023-07-29T09:09:26;4.75;;;2.25;;
27706;SDS011;36332;51.384;0.040;2023-07-29T09:11:53;5.85;;;2.50;;
27706;SDS011;36332;51.384;0.040;2023-07-29T09:14:21;6.95;;;2.75;;
27706;SDS011;36332;51.384;0.040;2023-07-29T09:16:49;4.93;;;2.42;;
27706;SDS011;36332;51.384;0.040;2023-07-29T09:19:17;3.70;;;1.40;;
27706;SDS011;36332;51.384;0.040;2023-07-29T09:21:46;5.05;;;1.50;;
27706;SDS011;36332;51.384;0.040;2023-07-29T09:24:15;3.90;;;1.80;;
27706;SDS011;36332;51.384;0.040;2023-07-29T09:26:48;1.80;;;1.27;;
27706;SDS011;36332;51.384;0.040;2023-07-29T09:29:21;2.90;;;1.60;;
27706;SDS011;36332;51.384;0.040;2023-07-29T09:31:50;7.40;;;2.05;;
27706;SDS011;36332;51.384;0.040;2023-07-29T09:34:18;3.85;;;2.03;;
27706;SDS011;36332;51.384;0.040;2023-07-29T09:36:46;6.00;;;2.38;;
27706;SDS011;36332;51.384;0.040;2023-07-29T09:39:14;4.18;;;2.05;;
27706;SDS011;36332;51.384;0.040;2023-07-29T09:41:41;6.03;;;2.38;;
27706;SDS011;36332;51.384;0.040;2023-07-29T09:44:15;5.55;;;2.22;;
27706;SDS011;36332;51.384;0.040;2023-07-29T09:46:45;6.13;;;2.25;;
27706;SDS011;36332;51.384;0.040;2023-07-29T09:49:13;6.00;;;1.92;;
27706;SDS011;36332;51.384;0.040;2023-07-29T09:51:41;5.30;;;2.45;;
27706;SDS011;36332;51.384;0.040;2023-07-29T09:54:10;4.93;;;2.30;;
27706;SDS011;36332;51.384;0.040;2023-07-29T09:56:41;5.05;;;2.17;;
27706;SDS011;36332;51.384;0.040;2023-07-29T09:59:11;9.70;;;2.97;;
27706;SDS011;36332;51.384;0.040;2023-07-29T10:01:40;7.05;;;2.30;;
27706;SDS011;36332;51.384;0.040;2023-07-29T10:04:08;5.97;;;2.30;;
27706;SDS011;36332;51.384;0.040;2023-07-29T10:06:41;3.97;;;2.17;;
27706;SDS011;36332;51.384;0.040;2023-07-29T10:09:11;4.43;;;2.20;;
27706;SDS011;36332;51.384;0.040;2023-07-29T10:11:40;6.18;;;2.55;;
27706;SDS011;36332;51.384;0.040;2023-07-29T10:14:09;3.88;;;2.30;;
27706;SDS011;36332;51.384;0.040;2023-07-29T10:16:37;7.85;;;2.53;;
27706;SDS011;36332;51.384;0.040;2023-07-29T10:19:06;6.65;;;2.25;;
27706;SDS011;36332;51.384;0.040;2023-07-29T10:21:35;5.03;;;1.70;;
27706;SDS011;36332;51.384;0.040;2023-07-29T10:24:06;3.15;;;1.92;;
27706;SDS011;36332;51.384;0.040;2023-07-29T10:26:38;7.15;;;2.78;;
27706;SDS011;36332;51.384;0.040;2023-07-29T10:29:10;5.07;;;2.05;;
27706;SDS011;36332;51.384;0.040;2023-07-29T10:31:41;4.45;;;2.25;;
27706;SDS011;36332;51.384;0.040;2023-07-29T10:34:11;11.88;;;2.78;;
27706;SDS011;36332;51.384;0.040;2023-07-29T10:36:40;8.15;;;2.60;;
27706;SDS011;36332;51.384;0.040;2023-07-29T10:39:08;6.13;;;2.15;;
27706;SDS011;36332;51.384;0.040;2023-07-29T10:47:12;5.57;;;2.20;;
27706;SDS011;36332;51.384;0.040;2023-07-29T10:49:49;5.55;;;2.05;;
27706;SDS011;36332;51.384;0.040;2023-07-29T10:52:28;5.53;;;1.95;;
27706;SDS011;36332;51.384;0.040;2023-07-29T10:55:02;5.90;;;1.70;;
27706;SDS011;36332;51.384;0.040;2023-07-29T10:57:32;5.75;;;2.22;;
27706;SDS011;36332;51.384;0.040;2023-07-29T11:00:02;4.13;;;2.10;;
27706;SDS011;36332;51.384;0.040;2023-07-29T11:02:32;4.43;;;1.65;;
27706;SDS011;36332;51.384;0.040;2023-07-29T11:05:07;9.63;;;2.38;;
27706;SDS011;36332;51.384;0.040;2023-07-29T11:07:48;3.72;;;1.85;;
27706;SDS011;36332;51.384;0.040;2023-07-29T11:10:16;7.47;;;2.03;;
27706;SDS011;36332;51.384;0.040;2023-07-29T11:12:44;6.65;;;2.05;;
27706;SDS011;36332;51.384;0.040;2023-07-29T11:15:18;4.68;;;2.42;;
27706;SDS011;36332;51.384;0.040;2023-07-29T11:20:19;4.72;;;1.95;;
27706;SDS011;36332;51.384;0.040;2023-07-29T11:22:49;9.30;;;2.05;;
27706;SDS011;36332;51.384;0.040;2023-07-29T11:25:17;6.95;;;2.15;;
27706;SDS011;36332;51.384;0.040;2023-07-29T11:27:46;10.82;;;2.60;;
27706;SDS011;36332;51.384;0.040;2023-07-29T11:30:15;8.18;;;2.50;;
27706;SDS011;36332;51.384;0.040;2023-07-29T11:32:43;8.38;;;2.30;;
27706;SDS011;36332;51.384;0.040;2023-07-29T11:35:16;7.43;;;2.15;;
27706;SDS011;36332;51.384;0.040;2023-07-29T11:37:45;3.67;;;1.92;;
27706;SDS011;36332;51.384;0.040;2023-07-29T11:40:18;5.75;;;1.60;;
27706;SDS011;36332;51.384;0.040;2023-07-29T11:42:47;10.00;;;3.15;;
27706;SDS011;36332;51.384;0.040;2023-07-29T11:45:18;6.80;;;1.77;;
27706;SDS011;36332;51.384;0.040;2023-07-29T11:47:47;9.85;;;2.47;;
27706;SDS011;36332;51.384;0.040;2023-07-29T11:50:15;6.72;;;1.67;;
27706;SDS011;36332;51.384;0.040;2023-07-29T11:52:43;9.02;;;2.00;;
27706;SDS011;36332;51.384;0.040;2023-07-29T11:55:13;7.32;;;1.92;;
27706;SDS011;36332;51.384;0.040;2023-07-29T11:57:42;6.38;;;2.22;;
27706;SDS011;36332;51.384;0.040;2023-07-29T12:00:11;4.32;;;1.92;;
27706;SDS011;36332;51.384;0.040;2023-07-29T12:02:42;4.30;;;2.00;;
27706;SDS011;36332;51.384;0.040;2023-07-29T12:05:13;5.07;;;1.92;;
27706;SDS011;36332;51.384;0.040;2023-07-29T12:07:42;6.13;;;2.38;;
27706;SDS011;36332;51.384;0.040;2023-07-29T12:10:11;6.03;;;2.47;;
27706;SDS011;36332;51.384;0.040;2023-07-29T12:12:44;6.70;;;2.47;;
27706;SDS011;36332;51.384;0.040;2023-07-29T12:15:12;8.93;;;2.40;;
27706;SDS011;36332;51.384;0.040;2023-07-29T12:17:40;8.90;;;2.70;;
27706;SDS011;36332;51.384;0.040;2023-07-29T12:20:09;5.72;;;2.42;;
27706;SDS011;36332;51.384;0.040;2023-07-29T12:22:38;7.15;;;2.13;;
27706;SDS011;36332;51.384;0.040;2023-07-29T12:25:06;7.15;;;2.33;;
27706;SDS011;36332;51.384;0.040;2023-07-29T12:27:34;7.25;;;2.53;;
27706;SDS011;36332;51.384;0.040;2023-07-29T12:30:02;5.35;;;1.70;;
27706;SDS011;36332;51.384;0.040;2023-07-29T12:32:32;6.28;;;2.17;;
27706;SDS011;36332;51.384;0.040;2023-07-29T12:34:59;7.13;;;2.65;;
27706;SDS011;36332;51.384;0.040;2023-07-29T12:37:31;7.13;;;2.88;;
27706;SDS011;36332;51.384;0.040;2023-07-29T12:39:59;6.85;;;3.03;;
27706;SDS011;36332;51.384;0.040;2023-07-29T12:42:28;5.57;;;2.50;;
27706;SDS011;36332;51.384;0.040;2023-07-29T12:44:56;9.27;;;3.35;;
27706;SDS011;36332;51.384;0.040;2023-07-29T12:47:23;7.25;;;2.17;;
27706;SDS011;36332;51.384;0.040;2023-07-29T12:49:51;6.10;;;2.20;;
27706;SDS011;36332;51.384;0.040;2023-07-29T12:52:19;4.03;;;1.77;;
27706;SDS011;36332;51.384;0.040;2023-07-29T12:54:46;12.05;;;2.70;;
27706;SDS011;36332;51.384;0.040;2023-07-29T12:57:14;7.38;;;2.15;;
27706;SDS011;36332;51.384;0.040;2023-07-29T12:59:42;7.30;;;2.30;;
27706;SDS011;36332;51.384;0.040;2023-07-29T13:02:10;5.03;;;1.70;;
27706;SDS011;36332;51.384;0.040;2023-07-29T13:04:38;9.95;;;2.58;;
27706;SDS011;36332;51.384;0.040;2023-07-29T13:07:06;4.97;;;2.08;;
27706;SDS011;36332;51.384;0.040;2023-07-29T13:09:34;9.93;;;2.67;;
27706;SDS011;36332;51.384;0.040;2023-07-29T13:12:02;7.82;;;2.00;;
27706;SDS011;36332;51.384;0.040;2023-07-29T13:14:31;9.02;;;2.35;;
27706;SDS011;36332;51.384;0.040;2023-07-29T13:17:00;8.88;;;2.35;;
27706;SDS011;36332;51.384;0.040;2023-07-29T13:19:28;8.32;;;2.22;;
27706;SDS011;36332;51.384;0.040;2023-07-29T13:21:56;11.45;;;2.90;;
27706;SDS011;36332;51.384;0.040;2023-07-29T13:24:24;3.55;;;2.05;;
27706;SDS011;36332;51.384;0.040;2023-07-29T13:26:52;9.80;;;2.22;;
27706;SDS011;36332;51.384;0.040;2023-07-29T13:29:19;4.40;;;1.77;;
27706;SDS011;36332;51.384;0.040;2023-07-29T13:31:47;12.70;;;2.40;;
27706;SDS011;36332;51.384;0.040;2023-07-29T13:34:15;8.48;;;2.00;;
27706;SDS011;36332;51.384;0.040;2023-07-29T13:36:43;5.32;;;2.10;;
27706;SDS011;36332;51.384;0.040;2023-07-29T13:39:11;7.88;;;2.47;;
27706;SDS011;36332;51.384;0.040;2023-07-29T13:41:38;6.63;;;2.15;;
27706;SDS011;36332;51.384;0.040;2023-07-29T13:44:06;4.18;;;1.88;;
27706;SDS011;36332;51.384;0.040;2023-07-29T13:46:34;9.70;;;2.90;;
27706;SDS011;36332;51.384;0.040;2023-07-29T13:49:02;11.43;;;3.17;;
27706;SDS011;36332;51.384;0.040;2023-07-29T13:51:30;7.55;;;2.80;;
27706;SDS011;36332;51.384;0.040;2023-07-29T13:53:58;6.68;;;2.38;;
27706;SDS011;36332;51.384;0.040;2023-07-29T13:56:26;6.72;;;2.42;;
27706;SDS011;36332;51.384;0.040;2023-07-29T13:58:54;5.35;;;1.95;;
27706;SDS011;36332;51.384;0.040;2023-07-29T14:01:22;9.63;;;3.05;;
27706;SDS011;36332;51.384;0.040;2023-07-29T14:03:49;9.50;;;2.30;;
27706;SDS011;36332;51.384;0.040;2023-07-29T14:06:17;7.97;;;2.53;;
27706;SDS011;36332;51.384;0.040;2023-07-29T14:08:51;4.80;;;1.65;;
27706;SDS011;36332;51.384;0.040;2023-07-29T14:11:19;5.15;;;1.98;;
27706;SDS011;36332;51.384;0.040;2023-07-29T14:13:47;6.00;;;2.30;;
27706;SDS011;36332;51.384;0.040;2023-07-29T14:16:14;7.75;;;2.83;;
27706;SDS011;36332;51.384;0.040;2023-07-29T14:18:42;5.53;;;2.63;;
27706;SDS011;36332;51.384;0.040;2023-07-29T14:21:10;5.93;;;2.40;;
27706;SDS011;36332;51.384;0.040;2023-07-29T14:23:38;5.25;;;2.08;;
27706;SDS011;36332;51.384;0.040;2023-07-29T14:26:06;8.40;;;3.78;;
27706;SDS011;36332;51.384;0.040;2023-07-29T14:28:36;6.90;;;3.25;;
27706;SDS011;36332;51.384;0.040;2023-07-29T14:31:04;4.45;;;1.85;;
27706;SDS011;36332;51.384;0.040;2023-07-29T14:33:32;3.20;;;2.00;;
27706;SDS011;36332;51.384;0.040;2023-07-29T14:36:01;7.72;;;2.00;;
27706;SDS011;36332;51.384;0.040;2023-07-29T14:38:30;3.88;;;1.50;;
27706;SDS011;36332;51.384;0.040;2023-07-29T14:40:58;6.32;;;2.88;;
27706;SDS011;36332;51.384;0.040;2023-07-29T14:43:27;2.70;;;1.38;;
27706;SDS011;36332;51.384;0.040;2023-07-29T14:45:54;2.72;;;1.25;;
27706;SDS011;36332;51.384;0.040;2023-07-29T14:48:23;5.82;;;4.43;;
27706;SDS011;36332;51.384;0.040;2023-07-29T14:50:51;3.92;;;2.65;;
27706;SDS011;36332;51.384;0.040;2023-07-29T14:53:19;3.10;;;1.70;;
27706;SDS011;36332;51.384;0.040;2023-07-29T14:55:47;5.63;;;2.38;;
27706;SDS011;36332;51.384;0.040;2023-07-29T14:58:14;5.82;;;1.90;;
27706;SDS011;36332;51.384;0.040;2023-07-29T15:00:42;6.15;;;1.80;;
27706;SDS011;36332;51.384;0.040;2023-07-29T15:03:10;3.20;;;1.30;;
27706;SDS011;36332;51.384;0.040;2023-07-29T15:05:39;4.68;;;1.98;;